Time;durP1;ratioP1;P1;durP2;ratioP2;P2;SDS_P1;SDS_P2;PMS_P1;PMS_P2;Temp;Humidity;BMP_temperature;BMP_pressure;BME280_temperature;BME280_humidity;BME280_pressure;Samples;Min_cycle;Max_cycle;Signal;HPM_P1;HPM_P2
2023/04/14 00:00:05;;;;;;;4.72;2.72;;;;;;;;;;10289291;28;20494;-65
2023/04/14 00:05:10;;;;;;;9.35;7.50;;;;;;;;;;10292526;28;20092;-66
2023/04/14 00:10:09;;;;;;;6.20;5.32;;;;;;;;;;10287928;28;20106;-66
2023/04/14 00:15:08;;;;;;;5.00;3.85;;;;;;;;;;10288530;28;20102;-65
2023/04/14 00:20:07;;;;;;;5.15;3.78;;;;;;;;;;10284947;28;20076;-65
2023/04/14 00:25:07;;;;;;;3.22;2.75;;;;;;;;;;10291713;28;20069;-66
2023/04/14 00:30:05;;;;;;;3.10;2.40;;;;;;;;;;10288666;28;20072;-66
2023/04/14 00:35:05;;;;;;;3.40;2.03;;;;;;;;;;10291555;28;20073;-66
2023/04/14 00:40:03;;;;;;;2.35;2.15;;;;;;;;;;10286039;28;20091;-66
2023/04/14 00:45:02;;;;;;;4.20;2.30;;;;;;;;;;10288274;28;20470;-66
2023/04/14 00:50:01;;;;;;;2.97;2.40;;;;;;;;;;10290021;28;20106;-66
2023/04/14 00:54:59;;;;;;;2.60;2.40;;;;;;;;;;10288853;28;20091;-65
2023/04/14 00:59:58;;;;;;;2.90;2.20;;;;;;;;;;10287888;28;20056;-66
2023/04/14 01:04:57;;;;;;;5.35;1.98;;;;;;;;;;10289241;28;20068;-66
2023/04/14 01:09:57;;;;;;;3.22;2.70;;;;;;;;;;10265109;28;20076;-66
2023/04/14 01:15:03;;;;;;;4.70;3.25;;;;;;;;;;10281954;28;20068;-66
2023/04/14 01:20:07;;;;;;;2.80;2.47;;;;;;;;;;10289313;28;20075;-66
2023/04/14 01:25:22;;;;;;;5.20;4.47;;;;;;;;;;10287241;28;20064;-66
2023/04/14 01:30:32;;;;;;;6.50;4.27;;;;;;;;;;10285288;28;20512;-66
2023/04/14 01:35:34;;;;;;;6.43;4.90;;;;;;;;;;10280875;28;20479;-66
2023/04/14 01:40:33;;;;;;;7.05;4.43;;;;;;;;;;10295668;28;20080;-65
2023/04/14 01:45:35;;;;;;;6.32;4.70;;;;;;;;;;10296624;28;20075;-66
2023/04/14 01:50:35;;;;;;;8.15;5.88;;;;;;;;;;10303636;28;20072;-66
2023/04/14 01:55:36;;;;;;;10.10;5.38;;;;;;;;;;10280375;28;20502;-66
2023/04/14 02:00:35;;;;;;;6.55;4.70;;;;;;;;;;10281878;28;20096;-66
2023/04/14 02:05:36;;;;;;;6.38;4.40;;;;;;;;;;10294924;28;20065;-66
2023/04/14 02:10:35;;;;;;;7.93;4.38;;;;;;;;;;10278956;28;20092;-65
2023/04/14 02:15:34;;;;;;;8.13;4.82;;;;;;;;;;10294011;28;20369;-66
2023/04/14 02:20:33;;;;;;;10.57;5.55;;;;;;;;;;10287550;28;20072;-65
2023/04/14 02:25:33;;;;;;;9.07;6.13;;;;;;;;;;10291337;28;20080;-65
2023/04/14 02:30:33;;;;;;;8.38;6.78;;;;;;;;;;10294589;28;20067;-65
2023/04/14 02:35:36;;;;;;;8.38;5.25;;;;;;;;;;10306132;28;20065;-65
2023/04/14 02:40:38;;;;;;;12.05;9.73;;;;;;;;;;10279055;28;20056;-65
2023/04/14 02:45:39;;;;;;;13.23;10.52;;;;;;;;;;10305522;28;20075;-65
2023/04/14 02:50:37;;;;;;;17.00;7.82;;;;;;;;;;10292216;28;20064;-65
2023/04/14 02:55:46;;;;;;;9.27;6.28;;;;;;;;;;10290317;28;20080;-66
2023/04/14 03:00:46;;;;;;;11.20;6.40;;;;;;;;;;10292595;28;20073;-66
2023/04/14 03:05:47;;;;;;;6.80;5.07;;;;;;;;;;10277407;28;20076;-65
2023/04/14 03:10:48;;;;;;;11.93;5.78;;;;;;;;;;10295631;28;20041;-65
2023/04/14 03:15:49;;;;;;;8.65;5.07;;;;;;;;;;10278759;28;20102;-66
2023/04/14 03:20:50;;;;;;;12.60;6.35;;;;;;;;;;10289676;28;20076;-65
2023/04/14 03:25:51;;;;;;;11.10;8.00;;;;;;;;;;10290203;28;20087;-65
2023/04/14 03:30:55;;;;;;;13.38;7.30;;;;;;;;;;10289944;28;20076;-66
2023/04/14 03:35:56;;;;;;;14.43;7.00;;;;;;;;;;10290990;28;20053;-66
2023/04/14 03:40:59;;;;;;;10.57;6.28;;;;;;;;;;10286716;28;20097;-65
2023/04/14 03:45:59;;;;;;;12.50;6.50;;;;;;;;;;10293021;28;20498;-66
2023/04/14 03:51:01;;;;;;;16.20;9.27;;;;;;;;;;10290944;28;20518;-65
2023/04/14 03:56:01;;;;;;;19.58;12.35;;;;;;;;;;10288844;28;20065;-66
2023/04/14 04:01:01;;;;;;;26.40;10.20;;;;;;;;;;10287607;28;20643;-66
2023/04/14 04:06:00;;;;;;;17.08;9.63;;;;;;;;;;10289355;28;20484;-65
2023/04/14 04:11:00;;;;;;;29.13;21.38;;;;;;;;;;10291232;28;20108;-65
2023/04/14 04:16:00;;;;;;;24.20;15.45;;;;;;;;;;10275135;28;20465;-66
2023/04/14 04:20:59;;;;;;;31.63;20.20;;;;;;;;;;10286816;28;20076;-66
2023/04/14 04:26:00;;;;;;;30.38;19.02;;;;;;;;;;10287937;28;20095;-66
2023/04/14 04:31:06;;;;;;;16.80;10.20;;;;;;;;;;10289922;28;20098;-65
2023/04/14 04:36:06;;;;;;;19.85;11.65;;;;;;;;;;10285548;28;20533;-66
2023/04/14 04:41:20;;;;;;;18.27;10.40;;;;;;;;;;10275713;28;20091;-66
2023/04/14 04:46:29;;;;;;;16.60;10.00;;;;;;;;;;10290382;28;20079;-65
2023/04/14 04:51:28;;;;;;;35.22;25.65;;;;;;;;;;10286518;28;20076;-65
2023/04/14 04:56:27;;;;;;;16.95;13.82;;;;;;;;;;10286052;28;20075;-65
2023/04/14 05:01:26;;;;;;;6.38;5.60;;;;;;;;;;10288192;28;20080;-66
2023/04/14 05:06:25;;;;;;;5.55;4.20;;;;;;;;;;10287008;28;20078;-65
2023/04/14 05:11:23;;;;;;;5.35;3.60;;;;;;;;;;10287002;28;20064;-65
2023/04/14 05:16:21;;;;;;;4.32;3.92;;;;;;;;;;10288422;28;20454;-65
2023/04/14 05:21:21;;;;;;;11.00;7.88;;;;;;;;;;10284739;28;20075;-65
2023/04/14 05:26:19;;;;;;;17.30;10.23;;;;;;;;;;10284285;28;20080;-65
2023/04/14 05:31:37;;;;;;;14.73;9.95;;;;;;;;;;10283116;28;20473;-65
2023/04/14 05:36:37;;;;;;;30.02;10.98;;;;;;;;;;10285863;28;20521;-65
2023/04/14 05:41:35;;;;;;;15.50;9.63;;;;;;;;;;10282746;28;20077;-65
2023/04/14 05:46:34;;;;;;;25.15;14.52;;;;;;;;;;10285578;28;20095;-66
2023/04/14 05:51:33;;;;;;;55.08;42.47;;;;;;;;;;10285480;28;20072;-65
2023/04/14 05:56:32;;;;;;;20.70;15.23;;;;;;;;;;10283754;28;20064;-66
2023/04/14 06:01:30;;;;;;;12.57;7.60;;;;;;;;;;10283814;28;20094;-66
2023/04/14 06:06:31;;;;;;;13.48;6.82;;;;;;;;;;10286473;28;20480;-66
2023/04/14 06:11:29;;;;;;;15.30;6.65;;;;;;;;;;10277793;28;20087;-66
2023/04/14 06:16:28;;;;;;;50.50;37.60;;;;;;;;;;10281081;28;20315;-65
2023/04/14 06:21:27;;;;;;;60.20;19.10;;;;;;;;;;10290900;28;20073;-65
2023/04/14 06:26:25;;;;;;;26.83;8.63;;;;;;;;;;10291581;28;20073;-67
2023/04/14 06:31:23;;;;;;;45.90;36.20;;;;;;;;;;10288003;28;20071;-66
2023/04/14 06:36:23;;;;;;;17.05;11.98;;;;;;;;;;10284753;28;20069;-65
2023/04/14 06:41:21;;;;;;;12.85;9.07;;;;;;;;;;10270599;28;20139;-65
2023/04/14 06:46:19;;;;;;;15.60;11.98;;;;;;;;;;10285395;28;20073;-66
2023/04/14 06:51:18;;;;;;;11.57;7.60;;;;;;;;;;10273426;28;20064;-65
2023/04/14 06:56:17;;;;;;;16.45;10.50;;;;;;;;;;10284132;28;20469;-66
2023/04/14 07:01:18;;;;;;;16.10;9.52;;;;;;;;;;10282896;28;20087;-68
2023/04/14 07:06:16;;;;;;;8.65;5.25;;;;;;;;;;10270432;28;20488;-66
2023/04/14 07:11:15;;;;;;;10.55;5.90;;;;;;;;;;10287093;28;20079;-66
2023/04/14 07:16:14;;;;;;;8.60;5.93;;;;;;;;;;10288625;28;20068;-66
2023/04/14 07:21:12;;;;;;;10.60;7.13;;;;;;;;;;10287813;28;20076;-66
2023/04/14 07:26:11;;;;;;;13.13;7.30;;;;;;;;;;10288638;28;20478;-66
2023/04/14 07:31:09;;;;;;;12.07;7.38;;;;;;;;;;10292098;28;20076;-66
2023/04/14 07:36:09;;;;;;;7.50;5.53;;;;;;;;;;10295245;28;20079;-66
2023/04/14 07:41:07;;;;;;;6.80;5.57;;;;;;;;;;10290540;28;20541;-64
2023/04/14 07:46:06;;;;;;;8.85;5.72;;;;;;;;;;10290959;28;20103;-64
2023/04/14 07:51:05;;;;;;;14.15;6.13;;;;;;;;;;10289796;28;20068;-64
2023/04/14 07:56:05;;;;;;;9.85;5.82;;;;;;;;;;10294006;28;20073;-64
2023/04/14 08:01:03;;;;;;;10.05;5.68;;;;;;;;;;10292741;28;20072;-64
2023/04/14 08:06:02;;;;;;;10.57;6.13;;;;;;;;;;10293093;28;20083;-64
2023/04/14 08:11:00;;;;;;;8.88;6.10;;;;;;;;;;10289708;28;20076;-64
2023/04/14 08:15:59;;;;;;;7.90;5.90;;;;;;;;;;10289157;28;20084;-64
2023/04/14 08:20:57;;;;;;;13.82;5.72;;;;;;;;;;10290897;28;20075;-65
2023/04/14 08:25:56;;;;;;;12.93;5.50;;;;;;;;;;10292866;28;20509;-65
2023/04/14 08:30:54;;;;;;;6.22;5.47;;;;;;;;;;10290985;28;20091;-65
2023/04/14 08:35:53;;;;;;;11.05;6.40;;;;;;;;;;10288216;28;20076;-65
2023/04/14 08:40:57;;;;;;;8.07;5.75;;;;;;;;;;10290371;28;20080;-65
2023/04/14 08:45:57;;;;;;;9.98;4.82;;;;;;;;;;10290276;28;20531;-65
2023/04/14 08:51:01;;;;;;;8.60;5.72;;;;;;;;;;10289061;28;20506;-64
2023/04/14 08:56:02;;;;;;;10.32;6.25;;;;;;;;;;10287640;28;20080;-65
2023/04/14 09:01:02;;;;;;;6.38;5.10;;;;;;;;;;10289111;28;20092;-65
2023/04/14 09:06:01;;;;;;;20.33;12.18;;;;;;;;;;10290516;28;20072;-64
2023/04/14 09:10:59;;;;;;;19.08;14.98;;;;;;;;;;10291545;28;20064;-65
2023/04/14 09:15:58;;;;;;;8.30;4.78;;;;;;;;;;10290635;28;20071;-63
2023/04/14 09:20:57;;;;;;;12.68;5.10;;;;;;;;;;10271846;28;20064;-65
2023/04/14 09:26:17;;;;;;;6.55;4.82;;;;;;;;;;10280871;28;20527;-64
2023/04/14 09:31:16;;;;;;;10.80;4.53;;;;;;;;;;10281132;28;20076;-65
2023/04/14 09:36:17;;;;;;;12.13;5.53;;;;;;;;;;10281102;28;20473;-65
2023/04/14 09:41:17;;;;;;;9.13;4.90;;;;;;;;;;10280799;28;20514;-64
2023/04/14 09:46:15;;;;;;;6.80;4.82;;;;;;;;;;10283223;28;20091;-64
2023/04/14 09:51:14;;;;;;;6.85;5.13;;;;;;;;;;10286930;28;20065;-64
2023/04/14 09:56:13;;;;;;;9.18;5.22;;;;;;;;;;10292267;28;20080;-64
2023/04/14 10:01:13;;;;;;;7.63;4.03;;;;;;;;;;10294811;28;20084;-64
2023/04/14 10:06:15;;;;;;;6.97;4.47;;;;;;;;;;10295149;28;20489;-64
2023/04/14 10:11:17;;;;;;;11.13;5.35;;;;;;;;;;10295407;28;20080;-64
2023/04/14 10:16:17;;;;;;;7.43;4.70;;;;;;;;;;10294698;28;20323;-64
2023/04/14 10:21:16;;;;;;;6.63;4.95;;;;;;;;;;10294640;28;20064;-64
2023/04/14 10:26:15;;;;;;;5.72;4.22;;;;;;;;;;10294044;28;20525;-64
2023/04/14 10:31:14;;;;;;;5.80;3.28;;;;;;;;;;10295298;28;20075;-64
2023/04/14 10:36:22;;;;;;;4.63;3.17;;;;;;;;;;10295443;28;20064;-65
2023/04/14 10:41:20;;;;;;;4.63;3.75;;;;;;;;;;10293105;28;20090;-64
2023/04/14 10:46:19;;;;;;;7.35;3.00;;;;;;;;;;10297136;28;20076;-65
2023/04/14 10:51:20;;;;;;;3.83;3.28;;;;;;;;;;10295650;28;20461;-63
2023/04/14 10:56:20;;;;;;;7.22;3.67;;;;;;;;;;10296640;28;20503;-63
2023/04/14 11:01:22;;;;;;;4.38;2.67;;;;;;;;;;10295021;28;20083;-63
2023/04/14 11:06:39;;;;;;;3.40;3.10;;;;;;;;;;10292935;28;20075;-63
2023/04/14 11:11:41;;;;;;;5.80;3.25;;;;;;;;;;10293654;28;20807;-63
2023/04/14 11:16:40;;;;;;;6.15;3.65;;;;;;;;;;10294772;28;20129;-64
2023/04/14 11:21:56;;;;;;;10.50;4.43;;;;;;;;;;10291805;28;20068;-63
2023/04/14 11:26:55;;;;;;;5.90;3.53;;;;;;;;;;10290866;28;20083;-64
2023/04/14 11:32:00;;;;;;;5.85;3.80;;;;;;;;;;10291467;28;20463;-63
2023/04/14 11:37:01;;;;;;;4.25;3.72;;;;;;;;;;10276344;28;20075;-63
2023/04/14 11:42:01;;;;;;;6.07;2.97;;;;;;;;;;10291111;28;20084;-64
2023/04/14 11:47:00;;;;;;;5.53;3.35;;;;;;;;;;10292477;28;20079;-65
2023/04/14 11:52:03;;;;;;;5.93;3.92;;;;;;;;;;10292931;28;20072;-64
2023/04/14 11:57:08;;;;;;;8.70;3.80;;;;;;;;;;10288291;28;20494;-62
2023/04/14 12:02:08;;;;;;;4.75;3.92;;;;;;;;;;10293285;28;20076;-63
2023/04/14 12:07:09;;;;;;;4.22;3.25;;;;;;;;;;10291074;28;20513;-64
2023/04/14 12:12:11;;;;;;;9.95;4.93;;;;;;;;;;10286518;28;20068;-65
2023/04/14 12:17:15;;;;;;;13.68;8.05;;;;;;;;;;10288946;28;20072;-63
2023/04/14 12:22:14;;;;;;;13.18;5.85;;;;;;;;;;10285834;28;20068;-63
2023/04/14 12:27:18;;;;;;;9.70;6.05;;;;;;;;;;10284487;28;20080;-64
2023/04/14 12:32:17;;;;;;;9.10;5.67;;;;;;;;;;10280049;28;20147;-64
2023/04/14 12:37:16;;;;;;;15.40;6.30;;;;;;;;;;10281471;28;20049;-63
2023/04/14 12:42:15;;;;;;;15.05;6.30;;;;;;;;;;10273786;28;20077;-63
2023/04/14 12:47:25;;;;;;;9.50;6.53;;;;;;;;;;10287653;28;20080;-63
2023/04/14 12:52:35;;;;;;;9.52;6.53;;;;;;;;;;10285394;28;20558;-62
2023/04/14 12:57:35;;;;;;;13.13;7.78;;;;;;;;;;10284348;28;20060;-61
2023/04/14 13:02:36;;;;;;;12.85;7.45;;;;;;;;;;10281527;28;20450;-62
2023/04/14 13:07:35;;;;;;;8.73;6.28;;;;;;;;;;10301754;28;20087;-63
2023/04/14 13:12:34;;;;;;;10.60;7.43;;;;;;;;;;10292350;28;20068;-63
2023/04/14 13:17:33;;;;;;;11.48;7.15;;;;;;;;;;10286667;28;20064;-63
2023/04/14 13:22:31;;;;;;;12.90;6.85;;;;;;;;;;10290338;28;20490;-65
2023/04/14 13:27:29;;;;;;;6.53;5.90;;;;;;;;;;10292168;28;20069;-64
2023/04/14 13:32:29;;;;;;;9.98;5.25;;;;;;;;;;10296507;28;20072;-64
2023/04/14 13:37:27;;;;;;;12.77;6.63;;;;;;;;;;10295790;28;20079;-64
2023/04/14 13:42:25;;;;;;;12.55;6.00;;;;;;;;;;10298024;28;20072;-64
2023/04/14 13:47:25;;;;;;;14.88;6.72;;;;;;;;;;10298222;28;20073;-64
2023/04/14 13:52:25;;;;;;;15.95;8.27;;;;;;;;;;10296058;28;20071;-65
2023/04/14 13:57:23;;;;;;;10.07;4.75;;;;;;;;;;10296437;28;20076;-64
2023/04/14 14:02:22;;;;;;;11.48;4.82;;;;;;;;;;10297265;28;20076;-64
2023/04/14 14:07:25;;;;;;;16.45;4.80;;;;;;;;;;10292103;28;20514;-64
2023/04/14 14:12:23;;;;;;;12.45;5.70;;;;;;;;;;10294756;28;20080;-64
2023/04/14 14:17:22;;;;;;;13.77;5.40;;;;;;;;;;10295494;28;20095;-64
2023/04/14 14:22:20;;;;;;;10.27;5.22;;;;;;;;;;10296398;28;20076;-64
2023/04/14 14:27:19;;;;;;;13.10;7.85;;;;;;;;;;10293926;28;20065;-63
2023/04/14 14:32:18;;;;;;;12.77;5.55;;;;;;;;;;10294849;28;20077;-65
2023/04/14 14:37:17;;;;;;;15.02;5.93;;;;;;;;;;10296129;28;20068;-64
2023/04/14 14:42:15;;;;;;;13.55;6.40;;;;;;;;;;10294187;28;20088;-65
2023/04/14 14:47:14;;;;;;;8.10;5.65;;;;;;;;;;10295841;28;20473;-65
2023/04/14 14:52:13;;;;;;;7.22;5.65;;;;;;;;;;10293909;28;20068;-65
2023/04/14 14:57:11;;;;;;;6.85;5.63;;;;;;;;;;10293864;28;20068;-64
2023/04/14 15:02:09;;;;;;;8.00;6.63;;;;;;;;;;10294497;28;20727;-64
2023/04/14 15:07:09;;;;;;;8.98;5.93;;;;;;;;;;10294837;28;20076;-64
2023/04/14 15:12:08;;;;;;;10.55;5.32;;;;;;;;;;10291940;28;20103;-65
2023/04/14 15:17:06;;;;;;;7.13;6.50;;;;;;;;;;10291989;28;20056;-65
2023/04/14 15:22:04;;;;;;;8.65;5.60;;;;;;;;;;10293376;28;20086;-64
2023/04/14 15:27:03;;;;;;;9.27;6.22;;;;;;;;;;10292372;28;20049;-65
2023/04/14 15:32:02;;;;;;;40.33;17.23;;;;;;;;;;10293736;28;20092;-66
2023/04/14 15:37:00;;;;;;;13.98;7.95;;;;;;;;;;10290652;28;20040;-64
2023/04/14 15:41:58;;;;;;;9.27;6.45;;;;;;;;;;10294634;28;20085;-65
2023/04/14 15:46:58;;;;;;;21.50;11.02;;;;;;;;;;10291983;28;20072;-65
2023/04/14 15:51:56;;;;;;;5.05;4.38;;;;;;;;;;10292342;28;20079;-65
2023/04/14 15:56:55;;;;;;;11.52;8.13;;;;;;;;;;10291645;28;20072;-64
2023/04/14 16:01:53;;;;;;;10.85;2.90;;;;;;;;;;10287468;28;20473;-65
2023/04/14 16:06:53;;;;;;;21.50;15.02;;;;;;;;;;10292409;28;20076;-65
2023/04/14 16:11:52;;;;;;;10.90;7.03;;;;;;;;;;10291991;28;20071;-65
2023/04/14 16:16:50;;;;;;;16.65;8.13;;;;;;;;;;10291166;28;20072;-65
2023/04/14 16:21:53;;;;;;;9.82;6.47;;;;;;;;;;10292506;28;20080;-64
2023/04/14 16:26:51;;;;;;;7.63;4.95;;;;;;;;;;10290981;28;20068;-65
2023/04/14 16:31:50;;;;;;;8.38;5.60;;;;;;;;;;10288655;28;20087;-65
2023/04/14 16:36:49;;;;;;;3.38;3.08;;;;;;;;;;10291973;28;20560;-64
2023/04/14 16:41:48;;;;;;;7.35;5.90;;;;;;;;;;10287865;28;20080;-64
2023/04/14 16:46:46;;;;;;;5.45;4.60;;;;;;;;;;10285893;28;20072;-65
2023/04/14 16:51:45;;;;;;;11.23;8.32;;;;;;;;;;10283991;28;20079;-64
2023/04/14 16:56:44;;;;;;;13.73;10.20;;;;;;;;;;10289179;28;20071;-64
2023/04/14 17:01:44;;;;;;;5.50;4.63;;;;;;;;;;10284447;28;20079;-64
2023/04/14 17:06:42;;;;;;;4.43;3.67;;;;;;;;;;10289972;28;20487;-64
2023/04/14 17:11:41;;;;;;;7.28;4.68;;;;;;;;;;10283769;28;20080;-64
2023/04/14 17:16:42;;;;;;;4.88;3.55;;;;;;;;;;10276185;28;20072;-63
2023/04/14 17:21:43;;;;;;;6.68;5.22;;;;;;;;;;10280982;28;20064;-64
2023/04/14 17:26:43;;;;;;;6.22;4.57;;;;;;;;;;10264761;28;20076;-63
2023/04/14 17:31:41;;;;;;;4.65;3.83;;;;;;;;;;10265752;28;20080;-62
2023/04/14 17:36:40;;;;;;;4.25;3.40;;;;;;;;;;10285334;28;20065;-64
2023/04/14 17:41:40;;;;;;;8.57;6.47;;;;;;;;;;10268939;28;20119;-64
2023/04/14 17:46:38;;;;;;;33.53;19.80;;;;;;;;;;10269224;28;20068;-64
2023/04/14 17:51:36;;;;;;;3.80;3.05;;;;;;;;;;10281145;28;20083;-65
2023/04/14 17:56:35;;;;;;;3.42;3.13;;;;;;;;;;10280647;28;20068;-64
2023/04/14 18:01:37;;;;;;;6.20;4.05;;;;;;;;;;10294134;28;20083;-63
2023/04/14 18:06:35;;;;;;;6.15;5.22;;;;;;;;;;10289311;28;20076;-63
2023/04/14 18:11:34;;;;;;;10.02;7.22;;;;;;;;;;10288484;28;20072;-63
2023/04/14 18:16:36;;;;;;;3.88;3.08;;;;;;;;;;10279256;28;20506;-63
2023/04/14 18:21:35;;;;;;;5.25;4.13;;;;;;;;;;10265982;28;20068;-62
2023/04/14 18:26:34;;;;;;;5.22;3.95;;;;;;;;;;10282996;28;20064;-64
2023/04/14 18:31:32;;;;;;;10.45;8.10;;;;;;;;;;10271980;28;20076;-64
2023/04/14 18:36:31;;;;;;;5.38;3.70;;;;;;;;;;10283237;28;20053;-63
2023/04/14 18:41:30;;;;;;;9.60;6.78;;;;;;;;;;10281430;28;20073;-63
2023/04/14 18:46:28;;;;;;;11.13;7.00;;;;;;;;;;10276568;28;20068;-62
2023/04/14 18:51:27;;;;;;;3.88;3.50;;;;;;;;;;10275210;28;20072;-63
2023/04/14 18:56:26;;;;;;;5.95;3.10;;;;;;;;;;10277272;28;20060;-62
2023/04/14 19:01:27;;;;;;;7.90;4.15;;;;;;;;;;10285408;28;20570;-63
2023/04/14 19:06:26;;;;;;;2.47;2.28;;;;;;;;;;10288147;28;20487;-64
2023/04/14 19:11:24;;;;;;;3.50;2.58;;;;;;;;;;10285643;28;20506;-63
2023/04/14 19:16:23;;;;;;;6.07;3.63;;;;;;;;;;10279583;28;20064;-63
2023/04/14 19:21:22;;;;;;;5.38;3.50;;;;;;;;;;10285099;28;20065;-64
2023/04/14 19:26:21;;;;;;;5.45;3.10;;;;;;;;;;10281460;28;20076;-65
2023/04/14 19:31:20;;;;;;;4.72;3.00;;;;;;;;;;10280723;28;20068;-64
2023/04/14 19:36:18;;;;;;;3.83;2.97;;;;;;;;;;10284540;28;20072;-64
2023/04/14 19:41:18;;;;;;;5.00;3.38;;;;;;;;;;10288560;28;20084;-65
2023/04/14 19:46:16;;;;;;;3.60;2.85;;;;;;;;;;10283605;28;20072;-64
2023/04/14 19:51:14;;;;;;;4.75;2.78;;;;;;;;;;10288047;28;20099;-64
2023/04/14 19:56:13;;;;;;;5.82;2.95;;;;;;;;;;10282885;28;20077;-64
2023/04/14 20:01:13;;;;;;;9.23;4.90;;;;;;;;;;10282743;28;20099;-64
2023/04/14 20:06:12;;;;;;;9.38;4.57;;;;;;;;;;10287120;28;20067;-64
2023/04/14 20:11:10;;;;;;;4.70;3.08;;;;;;;;;;10290882;28;20072;-64
2023/04/14 20:16:09;;;;;;;5.95;3.50;;;;;;;;;;10286422;28;20065;-65
2023/04/14 20:21:08;;;;;;;4.95;2.75;;;;;;;;;;10291143;28;20075;-65
2023/04/14 20:26:06;;;;;;;3.28;2.28;;;;;;;;;;10290355;28;20076;-65
2023/04/14 20:31:07;;;;;;;5.28;3.28;;;;;;;;;;10288097;28;20087;-65
2023/04/14 20:36:05;;;;;;;6.20;3.22;;;;;;;;;;10287577;28;20503;-65
2023/04/14 20:41:05;;;;;;;4.25;2.22;;;;;;;;;;10288918;28;20120;-64
2023/04/14 20:46:05;;;;;;;4.32;2.17;;;;;;;;;;10287691;28;20083;-65
2023/04/14 20:51:03;;;;;;;2.97;2.40;;;;;;;;;;10285760;28;20438;-65
2023/04/14 20:56:02;;;;;;;4.45;1.85;;;;;;;;;;10289139;28;20099;-65
2023/04/14 21:01:02;;;;;;;4.28;3.13;;;;;;;;;;10289067;28;20067;-64
2023/04/14 21:06:00;;;;;;;4.32;2.65;;;;;;;;;;10289329;28;20489;-65
2023/04/14 21:10:59;;;;;;;3.05;2.50;;;;;;;;;;10287953;28;20538;-64
2023/04/14 21:16:14;;;;;;;;;;;;;;;;;;10288655;28;20060;-65
2023/04/14 21:21:15;;;;;;;3.50;2.03;;;;;;;;;;10290878;28;19952;-65
2023/04/14 21:26:13;;;;;;;4.18;2.95;;;;;;;;;;10291170;28;20076;-65
2023/04/14 21:31:11;;;;;;;4.90;3.13;;;;;;;;;;10289499;28;20080;-65
2023/04/14 21:36:09;;;;;;;3.90;3.33;;;;;;;;;;10291353;28;20069;-65
2023/04/14 21:41:09;;;;;;;4.88;3.55;;;;;;;;;;10289518;28;20080;-65
2023/04/14 21:46:07;;;;;;;3.00;2.15;;;;;;;;;;10289427;28;20065;-65
2023/04/14 21:51:06;;;;;;;2.30;2.00;;;;;;;;;;10296815;28;20079;-65
2023/04/14 21:56:04;;;;;;;3.00;2.50;;;;;;;;;;10297705;28;20068;-65
2023/04/14 22:01:09;;;;;;;6.15;4.85;;;;;;;;;;10296182;28;20098;-65
2023/04/14 22:06:08;;;;;;;4.97;2.55;;;;;;;;;;10296206;28;20552;-65
2023/04/14 22:11:07;;;;;;;5.75;2.90;;;;;;;;;;10293328;28;20076;-65
2023/04/14 22:16:05;;;;;;;2.97;2.65;;;;;;;;;;10297669;28;20064;-65
2023/04/14 22:21:05;;;;;;;4.63;2.85;;;;;;;;;;10297129;28;20072;-65
2023/04/14 22:26:03;;;;;;;2.05;1.85;;;;;;;;;;10296342;28;20501;-65
2023/04/14 22:31:01;;;;;;;3.25;2.40;;;;;;;;;;10294181;28;20079;-65
2023/04/14 22:36:02;;;;;;;5.38;2.35;;;;;;;;;;10294439;28;20475;-65
2023/04/14 22:41:02;;;;;;;2.50;2.05;;;;;;;;;;10294787;28;20088;-65
2023/04/14 22:46:00;;;;;;;4.00;2.00;;;;;;;;;;10296782;28;20075;-65
2023/04/14 22:50:58;;;;;;;1.70;1.60;;;;;;;;;;10295379;28;20083;-65
2023/04/14 22:55:57;;;;;;;2.88;1.70;;;;;;;;;;10295768;28;20079;-65
2023/04/14 23:00:57;;;;;;;3.80;1.98;;;;;;;;;;10295102;28;20073;-65
2023/04/14 23:06:01;;;;;;;3.55;2.08;;;;;;;;;;10293169;28;20071;-65
2023/04/14 23:11:00;;;;;;;5.25;3.53;;;;;;;;;;10293330;28;20075;-65
2023/04/14 23:15:59;;;;;;;4.80;2.30;;;;;;;;;;10295072;28;20056;-65
2023/04/14 23:20:58;;;;;;;4.45;2.72;;;;;;;;;;10294717;28;20068;-65
2023/04/14 23:25:56;;;;;;;4.85;2.15;;;;;;;;;;10294798;28;20064;-65
2023/04/14 23:30:54;;;;;;;3.35;1.80;;;;;;;;;;10294581;28;20082;-65
2023/04/14 23:35:54;;;;;;;3.75;2.40;;;;;;;;;;10291500;28;20308;-65
2023/04/14 23:40:57;;;;;;;5.70;2.13;;;;;;;;;;10293539;28;20076;-65
2023/04/14 23:45:55;;;;;;;4.22;1.90;;;;;;;;;;10292385;28;20065;-66
2023/04/14 23:50:55;;;;;;;4.68;2.10;;;;;;;;;;10293942;28;20080;-66
2023/04/14 23:55:58;;;;;;;3.13;2.00;;;;;;;;;;10293341;28;20509;-65
